createdAt,value
2018-11-25T00:00:50.940Z,13.60
2018-11-25T00:03:19.489Z,14.27
2018-11-25T00:06:07.357Z,13.30
2018-11-25T00:08:35.801Z,15.07
2018-11-25T00:11:04.351Z,14.23
2018-11-25T00:13:32.952Z,16.23
2018-11-25T00:16:01.909Z,14.20
2018-11-25T00:18:30.362Z,17.63
2018-11-25T00:20:58.855Z,14.50
2018-11-25T00:23:27.359Z,12.57
2018-11-25T00:25:55.904Z,14.50
2018-11-25T00:28:24.383Z,14.40
2018-11-25T00:30:52.843Z,15.03
2018-11-25T00:33:21.603Z,16.33
2018-11-25T00:35:50.123Z,16.77
2018-11-25T00:38:18.639Z,16.37
2018-11-25T00:40:47.183Z,17.33
2018-11-25T00:43:15.674Z,17.50
2018-11-25T00:45:44.263Z,18.53
2018-11-25T00:48:12.912Z,19.30
2018-11-25T00:50:41.818Z,19.83
2018-11-25T00:53:10.314Z,23.10
2018-11-25T00:55:38.934Z,24.27
2018-11-25T00:58:07.471Z,28.93
2018-11-25T01:00:36.049Z,27.47
2018-11-25T01:03:04.574Z,27.70
2018-11-25T01:05:33.535Z,25.23
2018-11-25T01:08:02.321Z,25.80
2018-11-25T01:10:30.887Z,26.67
2018-11-25T01:12:59.485Z,30.87
2018-11-25T01:15:28.119Z,25.57
2018-11-25T01:17:56.641Z,25.93
2018-11-25T01:36:43.581Z,34.57
2018-11-25T01:39:12.078Z,38.27
2018-11-25T01:41:40.512Z,38.10
2018-11-25T01:44:09.131Z,38.53
2018-11-25T01:46:38.145Z,36.73
2018-11-25T01:49:06.785Z,40.00
2018-11-25T01:51:35.379Z,37.93
2018-11-25T01:54:03.970Z,37.07
2018-11-25T01:56:32.612Z,37.73
2018-11-25T01:59:01.101Z,37.63
2018-11-25T02:01:29.748Z,37.13
2018-11-25T02:03:58.360Z,33.03
2018-11-25T02:06:27.026Z,32.17
2018-11-25T02:11:51.296Z,25.97
2018-11-25T02:14:19.725Z,28.37
2018-11-25T02:16:48.360Z,28.53
2018-11-25T02:19:16.950Z,35.17
2018-11-25T02:21:45.341Z,28.73
2018-11-25T02:24:14.010Z,29.37
2018-11-25T02:26:42.552Z,32.57
2018-11-25T02:29:11.105Z,27.40
2018-11-25T02:31:39.574Z,26.43
2018-11-25T02:34:08.244Z,28.17
2018-11-25T02:36:37.357Z,22.07
2018-11-25T02:39:08.636Z,30.60
2018-11-25T02:41:37.830Z,27.97
2018-11-25T02:44:06.455Z,31.00
2018-11-25T02:46:35.072Z,25.50
2018-11-25T02:49:03.700Z,28.80
2018-11-25T02:51:32.543Z,29.53
2018-11-25T02:54:01.244Z,24.13
2018-11-25T02:56:29.886Z,24.20
2018-11-25T02:58:58.579Z,24.37
2018-11-25T03:01:27.145Z,26.07
2018-11-25T03:03:56.204Z,25.43
2018-11-25T03:06:43.996Z,27.57
2018-11-25T03:09:12.865Z,29.23
2018-11-25T03:11:43.387Z,30.77
2018-11-25T03:14:12.023Z,31.60
2018-11-25T03:16:40.546Z,37.27
2018-11-25T03:19:09.090Z,35.90
2018-11-25T03:21:37.639Z,46.58
2018-11-25T03:24:06.560Z,45.27
2018-11-25T03:26:34.852Z,43.00
2018-11-25T03:29:03.838Z,47.73
2018-11-25T03:31:32.284Z,41.57
2018-11-25T03:34:00.790Z,37.63
2018-11-25T03:36:29.362Z,39.67
2018-11-25T03:38:57.977Z,42.40
2018-11-25T03:41:26.478Z,39.93
2018-11-25T03:43:55.059Z,32.67
2018-11-25T03:46:23.517Z,31.67
2018-11-25T03:48:52.191Z,82.97
2018-11-25T03:51:20.695Z,53.57
2018-11-25T03:53:49.335Z,48.47
2018-11-25T03:56:17.795Z,38.13
2018-11-25T03:58:46.362Z,65.80
2018-11-25T04:01:14.946Z,57.63
2018-11-25T04:03:43.809Z,49.50
2018-11-25T04:06:12.502Z,39.37
2018-11-25T04:08:41.085Z,50.03
2018-11-25T04:11:09.729Z,77.77
2018-11-25T04:13:40.776Z,45.50
2018-11-25T04:16:28.641Z,52.07
2018-11-25T04:18:57.189Z,46.00
2018-11-25T04:21:26.294Z,35.73
2018-11-25T04:23:55.012Z,51.17
2018-11-25T04:26:23.695Z,38.60
2018-11-25T04:42:34.499Z,61.03
2018-11-25T04:45:02.993Z,62.93
2018-11-25T04:47:31.400Z,56.67
2018-11-25T04:49:59.882Z,52.17
2018-11-25T04:52:28.450Z,59.57
2018-11-25T04:54:56.999Z,60.77
2018-11-25T04:57:25.394Z,63.20
2018-11-25T04:59:53.963Z,52.07
2018-11-25T05:02:22.475Z,76.00
2018-11-25T05:04:51.757Z,54.13
2018-11-25T05:07:19.400Z,48.37
2018-11-25T05:09:47.940Z,40.87
2018-11-25T05:12:16.515Z,47.70
2018-11-25T05:14:44.998Z,39.67
2018-11-25T05:17:13.573Z,68.37
2018-11-25T05:19:42.094Z,42.37
2018-11-25T05:22:10.642Z,49.50
2018-11-25T05:24:39.185Z,25.77
2018-11-25T05:27:07.650Z,32.57
2018-11-25T05:29:36.341Z,35.03
2018-11-25T05:32:05.544Z,38.90
2018-11-25T05:34:34.640Z,39.10
2018-11-25T05:37:03.631Z,28.53
2018-11-25T05:39:32.230Z,34.33
2018-11-25T05:42:00.736Z,26.67
2018-11-25T05:44:29.442Z,33.43
2018-11-25T05:46:58.411Z,31.60
2018-11-25T05:49:26.996Z,29.90
2018-11-25T05:51:55.588Z,30.40
2018-11-25T05:54:24.670Z,30.30
2018-11-25T05:56:53.786Z,36.50
2018-11-25T05:59:22.373Z,32.27
2018-11-25T06:01:51.447Z,38.87
2018-11-25T06:04:20.374Z,61.73
2018-11-25T06:06:49.022Z,52.10
2018-11-25T06:09:17.633Z,62.57
2018-11-25T06:11:46.278Z,97.67
2018-11-25T06:14:14.769Z,47.07
2018-11-25T06:16:43.370Z,72.60
2018-11-25T06:19:11.842Z,48.17
2018-11-25T06:21:40.481Z,47.90
2018-11-25T06:24:09.009Z,44.33
2018-11-25T06:26:37.568Z,47.40
2018-11-25T06:29:06.286Z,45.03
2018-11-25T06:31:36.640Z,55.00
2018-11-25T06:34:05.428Z,48.10
2018-11-25T06:36:33.908Z,56.23
2018-11-25T06:39:02.397Z,57.50
2018-11-25T06:41:34.041Z,60.57
2018-11-25T06:44:00.131Z,52.17
2018-11-25T06:46:28.735Z,53.37
2018-11-25T06:48:58.286Z,64.97
2018-11-25T06:51:26.740Z,52.90
2018-11-25T06:53:55.366Z,87.53
2018-11-25T06:56:27.548Z,60.03
2018-11-25T06:58:52.618Z,87.43
2018-11-25T07:01:21.064Z,101.00
2018-11-25T07:03:49.663Z,58.23
2018-11-25T07:06:18.214Z,63.00
2018-11-25T07:08:46.608Z,35.63
2018-11-25T07:11:15.286Z,42.90
2018-11-25T07:13:43.769Z,42.33
2018-11-25T07:16:12.265Z,61.73
2018-11-25T07:18:40.755Z,50.07
2018-11-25T07:21:09.237Z,36.93
2018-11-25T07:23:37.704Z,50.47
2018-11-25T07:26:06.226Z,39.83
2018-11-25T07:28:34.805Z,45.23
2018-11-25T07:31:03.230Z,47.93
2018-11-25T07:33:31.851Z,75.13
2018-11-25T07:36:00.351Z,51.33
2018-11-25T07:38:28.767Z,53.77
2018-11-25T07:40:57.726Z,99.20
2018-11-25T07:43:26.160Z,74.90
2018-11-25T07:45:54.786Z,63.40
2018-11-25T07:48:23.254Z,81.53
2018-11-25T07:50:52.071Z,56.97
2018-11-25T07:53:20.606Z,58.83
2018-11-25T07:55:49.199Z,71.23
2018-11-25T07:58:17.978Z,67.47
2018-11-25T08:00:46.362Z,81.83
2018-11-25T08:03:14.924Z,101.53
2018-11-25T08:05:43.560Z,113.90
2018-11-25T08:08:12.157Z,68.87
2018-11-25T08:10:47.725Z,95.40
2018-11-25T08:13:16.130Z,126.77
2018-11-25T08:15:44.531Z,82.77
2018-11-25T08:18:13.046Z,119.17
2018-11-25T08:20:41.403Z,120.40
2018-11-25T08:23:09.817Z,101.50
2018-11-25T08:25:38.172Z,107.43
2018-11-25T08:28:06.570Z,138.07
2018-11-25T08:30:34.951Z,97.70
2018-11-25T08:33:03.508Z,128.00
2018-11-25T08:35:31.903Z,95.47
2018-11-25T08:38:00.335Z,87.30
2018-11-25T08:40:28.916Z,82.57
2018-11-25T08:42:57.272Z,83.17
2018-11-25T08:45:25.791Z,103.50
2018-11-25T08:47:54.239Z,76.37
2018-11-25T08:50:22.561Z,81.70
2018-11-25T08:53:10.387Z,76.93
2018-11-25T08:55:38.748Z,89.37
2018-11-25T08:58:07.217Z,75.07
2018-11-25T09:00:35.506Z,71.90
2018-11-25T09:03:03.893Z,72.67
2018-11-25T09:05:32.249Z,68.73
2018-11-25T09:08:00.614Z,71.67
2018-11-25T09:10:29.006Z,63.40
2018-11-25T09:12:58.255Z,69.23
2018-11-25T09:15:27.902Z,62.03
2018-11-25T09:17:56.274Z,65.73
2018-11-25T09:20:24.599Z,60.57
2018-11-25T09:22:53.508Z,62.40
2018-11-25T09:25:41.184Z,59.27
2018-11-25T09:28:09.569Z,61.60
2018-11-25T09:30:37.940Z,51.50
2018-11-25T09:33:06.302Z,58.33
2018-11-25T09:35:34.734Z,61.13
2018-11-25T09:38:03.102Z,57.97
2018-11-25T09:40:31.451Z,59.13
2018-11-25T09:42:59.896Z,54.27
2018-11-25T09:45:28.209Z,54.63
2018-11-25T09:47:56.574Z,52.73
2018-11-25T09:50:25.044Z,53.73
2018-11-25T09:52:53.500Z,57.07
2018-11-25T09:55:22.854Z,63.17
2018-11-25T09:57:52.426Z,47.13
2018-11-25T10:00:40.179Z,41.37
2018-11-25T10:03:08.766Z,41.10
2018-11-25T10:05:37.141Z,44.33
2018-11-25T10:08:06.227Z,46.00
2018-11-25T10:10:34.647Z,49.43
2018-11-25T10:13:03.106Z,44.50
2018-11-25T10:15:31.555Z,52.10
2018-11-25T10:18:00.310Z,50.20
2018-11-25T10:20:29.691Z,51.60
2018-11-25T10:22:58.109Z,57.03
2018-11-25T10:25:26.511Z,57.03
2018-11-25T10:27:54.928Z,54.57
2018-11-25T10:30:25.029Z,56.13
2018-11-25T10:33:13.090Z,57.90
2018-11-25T10:35:41.441Z,55.27
2018-11-25T10:38:09.924Z,58.93
2018-11-25T10:40:38.326Z,54.07
2018-11-25T10:43:06.786Z,58.77
2018-11-25T10:45:35.466Z,65.07
2018-11-25T10:48:04.039Z,59.53
2018-11-25T10:50:32.376Z,55.63
2018-11-25T10:53:00.833Z,49.07
2018-11-25T10:55:29.231Z,59.63
2018-11-25T10:57:57.656Z,57.70
2018-11-25T11:01:04.437Z,62.93
2018-11-25T11:03:52.098Z,64.87
2018-11-25T11:06:47.084Z,64.43
2018-11-25T11:09:15.986Z,67.57
2018-11-25T11:15:44.831Z,75.93
2018-11-25T11:18:13.817Z,60.37
2018-11-25T11:21:07.880Z,57.70
2018-11-25T11:24:23.685Z,53.63
2018-11-25T11:34:22.932Z,65.00
2018-11-25T11:44:44.192Z,64.90
2018-11-25T11:47:12.980Z,63.03
2018-11-25T11:49:41.426Z,67.10
2018-11-25T11:56:27.840Z,56.10
2018-11-25T12:01:53.410Z,55.13
2018-11-25T12:04:33.770Z,53.30
2018-11-25T12:07:02.273Z,63.13
2018-11-25T12:10:36.339Z,63.37
2018-11-25T12:13:05.740Z,90.30
2018-11-25T12:16:03.171Z,98.97
2018-11-25T12:18:36.349Z,98.30
2018-11-25T12:45:55.350Z,117.57
2018-11-25T12:48:56.494Z,127.07
2018-11-25T12:51:42.627Z,138.53
2018-11-25T12:54:21.453Z,140.80
2018-11-25T12:56:56.169Z,125.87
2018-11-25T13:00:10.236Z,126.67
2018-11-25T13:13:27.096Z,107.27
2018-11-25T13:16:04.592Z,123.17
2018-11-25T13:19:38.579Z,113.07
2018-11-25T13:23:09.067Z,113.97
2018-11-25T13:44:50.344Z,103.50
2018-11-25T13:47:54.160Z,112.30
2018-11-25T13:50:25.228Z,117.10
2018-11-25T13:53:34.103Z,100.37
2018-11-25T13:56:38.285Z,90.20
2018-11-25T14:03:13.767Z,84.87
2018-11-25T14:05:43.077Z,99.87
2018-11-25T14:08:37.130Z,88.50
2018-11-25T14:12:20.137Z,110.53
2018-11-25T14:21:46.838Z,79.77
2018-11-25T14:24:39.861Z,101.90
2018-11-25T14:30:13.178Z,94.23
2018-11-25T14:32:36.757Z,92.37
2018-11-25T14:35:05.905Z,96.40
2018-11-25T14:37:34.304Z,89.67
2018-11-25T14:40:02.698Z,95.37
2018-11-25T14:42:31.042Z,88.53
2018-11-25T14:44:59.452Z,97.83
2018-11-25T14:47:27.878Z,100.10
2018-11-25T14:49:56.378Z,114.07
2018-11-25T14:52:25.293Z,105.43
2018-11-25T14:54:53.677Z,99.17
2018-11-25T14:57:22.042Z,97.77
2018-11-25T14:59:50.490Z,91.97
2018-11-25T15:02:18.897Z,86.93
2018-11-25T15:04:47.573Z,105.13
2018-11-25T15:07:15.896Z,99.37
2018-11-25T15:09:44.959Z,92.77
2018-11-25T15:12:13.422Z,96.47
2018-11-25T15:14:41.778Z,94.87
2018-11-25T15:17:10.167Z,98.60
2018-11-25T15:19:38.531Z,95.73
2018-11-25T15:22:06.934Z,102.10
2018-11-25T15:24:39.114Z,103.87
2018-11-25T15:53:57.223Z,130.50
2018-11-25T16:00:55.315Z,122.27
2018-11-25T16:24:44.865Z,129.20
2018-11-25T16:35:45.778Z,119.27
2018-11-25T16:38:37.399Z,108.60
2018-11-25T16:48:50.213Z,121.53
2018-11-25T16:51:35.131Z,116.83
2018-11-25T16:55:00.835Z,130.57
2018-11-25T17:09:11.557Z,95.10
2018-11-25T17:11:40.368Z,119.47
2018-11-25T17:14:08.725Z,119.90
2018-11-25T17:16:37.144Z,112.57
2018-11-25T17:19:05.570Z,124.90
2018-11-25T17:21:53.460Z,108.37
2018-11-25T17:24:21.843Z,114.57
2018-11-25T17:26:50.208Z,105.27
2018-11-25T17:29:18.674Z,111.20
2018-11-25T17:31:47.044Z,125.40
2018-11-25T17:34:15.472Z,146.27
2018-11-25T17:36:43.858Z,140.53
2018-11-25T17:39:12.239Z,143.13
2018-11-25T17:41:41.128Z,162.10
2018-11-25T17:44:09.516Z,140.13
2018-11-25T17:46:37.979Z,151.00
2018-11-25T17:49:06.619Z,130.13
2018-11-25T17:51:35.346Z,124.97
2018-11-25T17:54:03.773Z,121.13
2018-11-25T17:56:32.266Z,123.43
2018-11-25T17:59:00.629Z,121.97
2018-11-25T18:01:29.266Z,122.83
2018-11-25T18:03:57.743Z,124.87
2018-11-25T18:06:26.195Z,134.63
2018-11-25T18:08:54.814Z,121.53
2018-11-25T18:11:23.346Z,120.10
2018-11-25T18:13:51.751Z,110.93
2018-11-25T18:16:20.203Z,124.27
2018-11-25T18:18:51.413Z,112.67
2018-11-25T18:21:39.259Z,110.93
2018-11-25T18:24:26.998Z,120.80
2018-11-25T18:26:55.443Z,119.13
2018-11-25T18:29:23.885Z,100.87
2018-11-25T18:31:52.265Z,98.20
2018-11-25T18:34:20.604Z,106.63
2018-11-25T18:36:49.289Z,96.60
2018-11-25T18:39:17.801Z,106.33
2018-11-25T18:41:46.250Z,105.10
2018-11-25T18:44:14.628Z,88.00
2018-11-25T18:46:47.581Z,85.90
2018-11-25T18:49:11.706Z,91.60
2018-11-25T18:51:40.066Z,82.97
2018-11-25T18:54:09.189Z,86.13
2018-11-25T18:56:37.535Z,96.00
2018-11-25T18:59:06.565Z,85.80
2018-11-25T19:02:13.627Z,91.27
2018-11-25T19:04:42.287Z,87.33
2018-11-25T19:07:10.749Z,79.27
2018-11-25T19:09:39.165Z,86.63
2018-11-25T19:12:07.600Z,74.43
2018-11-25T19:14:35.951Z,70.37
2018-11-25T19:17:04.386Z,68.30
2018-11-25T19:19:32.804Z,65.43
2018-11-25T19:22:01.237Z,112.50
2018-11-25T19:24:29.629Z,65.73
2018-11-25T19:26:58.031Z,69.43
2018-11-25T19:29:26.616Z,58.00
2018-11-25T19:31:55.065Z,57.47
2018-11-25T19:34:23.767Z,52.00
2018-11-25T19:36:52.193Z,50.17
2018-11-25T19:39:20.905Z,51.27
2018-11-25T19:41:49.277Z,42.40
2018-11-25T19:44:17.787Z,41.23
2018-11-25T19:46:46.594Z,37.80
2018-11-25T19:49:15.361Z,42.43
2018-11-25T19:51:43.903Z,43.13
2018-11-25T19:54:12.412Z,47.07
2018-11-25T19:56:40.870Z,37.90
2018-11-25T19:59:09.426Z,39.77
2018-11-25T20:01:37.889Z,38.53
2018-11-25T20:04:06.637Z,37.40
2018-11-25T20:06:34.985Z,32.13
2018-11-25T20:09:03.392Z,29.53
2018-11-25T20:11:31.743Z,30.40
2018-11-25T20:14:00.410Z,28.40
2018-11-25T20:16:48.205Z,23.77
2018-11-25T20:19:16.678Z,27.67
2018-11-25T20:22:04.267Z,26.90
2018-11-25T20:24:32.713Z,22.97
2018-11-25T20:27:20.119Z,36.67
2018-11-25T20:29:48.617Z,30.83
2018-11-25T20:32:36.463Z,27.77
2018-11-25T20:35:05.285Z,29.60
2018-11-25T20:37:34.360Z,25.43
2018-11-25T20:40:02.727Z,26.23
2018-11-25T20:42:31.357Z,29.20
2018-11-25T20:45:00.339Z,29.27
2018-11-25T20:47:29.045Z,30.83
2018-11-25T20:49:57.541Z,33.63
2018-11-25T20:52:45.121Z,29.23
2018-11-25T20:55:13.505Z,31.13
2018-11-25T20:57:42.164Z,29.13
2018-11-25T21:00:30.863Z,29.40
2018-11-25T21:03:00.552Z,27.57
2018-11-25T21:05:30.026Z,26.93
2018-11-25T21:07:58.670Z,32.83
2018-11-25T21:10:27.690Z,32.17
2018-11-25T21:12:56.926Z,30.40
2018-11-25T21:15:26.019Z,25.33
2018-11-25T21:17:54.689Z,31.17
2018-11-25T21:20:50.869Z,29.23
2018-11-25T21:23:12.367Z,30.13
2018-11-25T21:25:41.889Z,31.77
2018-11-25T21:28:10.579Z,32.90
2018-11-25T21:30:39.483Z,28.37
2018-11-25T21:33:08.410Z,26.03
2018-11-25T21:35:36.971Z,27.97
2018-11-25T21:38:05.556Z,24.53
2018-11-25T21:40:35.378Z,24.57
2018-11-25T21:43:04.030Z,27.90
2018-11-25T21:45:32.732Z,24.10
2018-11-25T21:48:01.338Z,25.53
2018-11-25T21:50:30.332Z,24.50
2018-11-25T21:52:59.402Z,23.57
2018-11-25T21:55:28.092Z,23.57
2018-11-25T21:58:16.092Z,24.60
2018-11-25T22:00:45.614Z,25.20
2018-11-25T22:03:14.257Z,22.53
2018-11-25T22:05:42.957Z,24.13
2018-11-25T22:08:11.329Z,22.43
2018-11-25T22:11:01.323Z,22.80
2018-11-25T22:13:30.811Z,24.73
2018-11-25T22:15:59.804Z,24.67
2018-11-25T22:21:36.805Z,26.03
2018-11-25T22:24:08.564Z,27.00
2018-11-25T22:26:37.178Z,25.37
2018-11-25T22:29:07.377Z,25.63
2018-11-25T22:31:35.907Z,24.57
2018-11-25T22:34:12.209Z,25.87
2018-11-25T22:36:42.004Z,23.07
2018-11-25T22:39:12.686Z,24.30
2018-11-25T22:41:41.616Z,24.53
2018-11-25T22:44:11.725Z,23.77
2018-11-25T22:46:40.142Z,23.93
2018-11-25T22:49:08.554Z,22.50
2018-11-25T22:51:57.252Z,22.50
2018-11-25T22:54:25.631Z,21.87
2018-11-25T22:56:54.056Z,20.73
2018-11-25T22:59:42.290Z,25.47
2018-11-25T23:02:30.825Z,28.67
2018-11-25T23:05:38.052Z,31.57
2018-11-25T23:08:07.606Z,32.30
2018-11-25T23:10:36.706Z,32.83
2018-11-25T23:13:05.652Z,28.10
2018-11-25T23:15:34.324Z,27.93
2018-11-25T23:18:02.925Z,25.30
2018-11-25T23:20:34.516Z,25.07
2018-11-25T23:23:03.578Z,22.87
2018-11-25T23:25:32.252Z,22.70
2018-11-25T23:28:01.015Z,23.93
2018-11-25T23:30:30.375Z,25.67
2018-11-25T23:33:03.540Z,23.53
2018-11-25T23:35:33.176Z,26.63
2018-11-25T23:38:01.552Z,24.10
2018-11-25T23:40:29.930Z,23.07
2018-11-25T23:42:58.304Z,24.27
2018-11-25T23:45:26.784Z,27.50
2018-11-25T23:47:55.146Z,23.70
2018-11-25T23:50:24.016Z,26.17
2018-11-25T23:52:52.360Z,27.10
2018-11-25T23:55:20.761Z,37.67
2018-11-25T23:57:49.117Z,39.43
